createdAt,value
2023-03-15T00:03:00.284Z,75.71
2023-03-15T00:08:04.375Z,75.33
2023-03-15T00:13:06.070Z,75.22
2023-03-15T00:18:07.511Z,75.29
2023-03-15T00:23:09.547Z,75.33
2023-03-15T00:28:11.530Z,75.57
2023-03-15T00:33:14.317Z,74.59
2023-03-15T00:38:15.746Z,74.20
2023-03-15T00:43:17.910Z,76.33
2023-03-15T00:48:19.392Z,76.03
2023-03-15T00:53:22.560Z,76.98
2023-03-15T00:58:26.438Z,75.92
2023-03-15T01:03:29.057Z,74.91
2023-03-15T01:08:31.338Z,74.41
2023-03-15T01:13:33.433Z,73.02
2023-03-15T01:18:34.981Z,74.93
2023-03-15T01:23:36.594Z,73.56
2023-03-15T01:28:38.369Z,73.89
2023-03-15T01:33:39.873Z,73.26
2023-03-15T01:38:41.770Z,73.04
2023-03-15T01:43:52.140Z,72.34
2023-03-15T01:49:05.457Z,72.26
2023-03-15T01:54:13.327Z,72.68
2023-03-15T01:59:25.685Z,71.17
2023-03-15T02:04:36.431Z,71.59
2023-03-15T02:09:49.606Z,70.66
2023-03-15T02:14:52.099Z,70.53
2023-03-15T02:20:27.820Z,71.79
2023-03-15T02:25:42.430Z,70.83
2023-03-15T02:30:45.941Z,70.98
2023-03-15T02:35:47.494Z,71.00
2023-03-15T02:40:51.438Z,71.32
2023-03-15T02:45:53.081Z,70.65
2023-03-15T02:50:54.595Z,71.68
2023-03-15T02:55:56.632Z,71.47
2023-03-15T03:00:58.082Z,71.99
2023-03-15T03:06:02.202Z,71.42
2023-03-15T03:11:03.878Z,71.82
2023-03-15T03:16:05.733Z,71.07
2023-03-15T03:21:08.364Z,71.66
2023-03-15T03:26:18.872Z,71.58
2023-03-15T03:31:23.254Z,69.91
2023-03-15T03:36:25.055Z,71.33
2023-03-15T03:41:26.562Z,70.04
2023-03-15T03:46:28.529Z,70.60
2023-03-15T03:51:30.748Z,70.83
2023-03-15T03:56:32.210Z,71.59
2023-03-15T04:01:33.719Z,71.03
2023-03-15T04:06:35.471Z,70.50
2023-03-15T04:11:36.900Z,70.73
2023-03-15T04:16:38.842Z,70.72
2023-03-15T04:21:47.062Z,70.71
2023-03-15T04:26:48.523Z,70.70
2023-03-15T04:31:49.943Z,70.97
2023-03-15T04:36:54.679Z,71.55
2023-03-15T04:41:56.212Z,71.20
2023-03-15T04:46:58.314Z,71.04
2023-03-15T04:51:59.793Z,70.98
2023-03-15T04:57:02.639Z,71.02
2023-03-15T05:02:04.245Z,71.65
2023-03-15T05:07:05.711Z,70.93
2023-03-15T05:12:07.631Z,71.78
2023-03-15T05:17:09.060Z,72.01
2023-03-15T05:22:10.510Z,71.68
2023-03-15T05:27:13.569Z,72.13
2023-03-15T05:32:15.075Z,72.24
2023-03-15T05:37:16.479Z,72.26
2023-03-15T05:42:22.142Z,71.37
2023-03-15T05:47:23.737Z,72.16
2023-03-15T05:52:26.368Z,71.56
2023-03-15T05:57:27.814Z,71.62
2023-03-15T06:02:29.214Z,71.63
2023-03-15T06:07:30.664Z,71.86
2023-03-15T06:12:32.099Z,70.74
2023-03-15T06:17:33.660Z,69.96
2023-03-15T06:22:35.159Z,69.80
2023-03-15T06:27:37.733Z,69.66
2023-03-15T06:32:39.224Z,69.15
2023-03-15T06:37:41.897Z,69.14
2023-03-15T06:42:43.320Z,68.85
2023-03-15T06:47:44.767Z,68.28
2023-03-15T06:52:46.246Z,67.78
2023-03-15T06:57:47.702Z,67.09
2023-03-15T07:02:49.314Z,66.79
2023-03-15T07:07:50.781Z,65.71
2023-03-15T07:12:52.216Z,66.72
2023-03-15T07:17:53.705Z,67.39
2023-03-15T07:22:55.165Z,66.30
2023-03-15T07:27:56.636Z,65.14
2023-03-15T07:32:58.176Z,64.33
2023-03-15T07:37:59.888Z,64.69
2023-03-15T07:43:01.346Z,63.99
2023-03-15T07:48:03.050Z,63.89
2023-03-15T07:53:05.513Z,63.93
2023-03-15T07:58:07.023Z,63.28
2023-03-15T08:03:08.621Z,62.13
2023-03-15T08:08:10.117Z,62.20
2023-03-15T08:13:12.304Z,62.10
2023-03-15T08:18:14.610Z,61.51
2023-03-15T08:23:16.731Z,60.49
2023-03-15T08:28:18.288Z,61.81
2023-03-15T08:33:19.760Z,61.47
2023-03-15T08:38:21.189Z,60.17
2023-03-15T08:43:22.775Z,59.31
2023-03-15T08:48:24.263Z,59.59
2023-03-15T08:53:25.706Z,59.94
2023-03-15T08:58:27.579Z,58.30
2023-03-15T09:03:29.019Z,59.49
2023-03-15T09:08:33.249Z,60.95
2023-03-15T09:13:34.768Z,59.27
2023-03-15T09:18:36.256Z,57.61
2023-03-15T09:23:37.712Z,57.76
2023-03-15T09:28:39.149Z,58.51
2023-03-15T09:33:40.766Z,58.64
2023-03-15T09:38:43.797Z,58.04
2023-03-15T09:44:09.242Z,55.90
2023-03-15T09:49:49.329Z,54.42
2023-03-15T09:54:54.275Z,55.30
2023-03-15T09:59:57.826Z,55.31
2023-03-15T10:05:23.180Z,54.80
2023-03-15T10:10:31.454Z,53.01
2023-03-15T10:15:47.388Z,52.09
2023-03-15T10:20:57.536Z,53.14
2023-03-15T10:25:59.746Z,53.27
2023-03-15T10:31:09.584Z,50.94
2023-03-15T10:36:18.238Z,53.12
2023-03-15T10:41:37.405Z,52.07
2023-03-15T10:46:38.936Z,52.77
2023-03-15T10:51:46.354Z,53.00
2023-03-15T10:56:51.945Z,54.06
2023-03-15T11:02:08.074Z,49.34
2023-03-15T11:07:10.649Z,50.98
2023-03-15T11:12:28.336Z,47.15
2023-03-15T11:17:35.873Z,46.93
2023-03-15T11:22:37.280Z,44.69
2023-03-15T11:27:38.792Z,45.40
2023-03-15T11:32:41.856Z,46.26
2023-03-15T11:38:13.014Z,45.90
2023-03-15T11:43:25.149Z,47.27
2023-03-15T11:48:55.837Z,47.48
2023-03-15T11:54:07.720Z,47.77
2023-03-15T11:59:13.779Z,47.43
2023-03-15T12:04:35.481Z,48.46
2023-03-15T12:09:36.836Z,49.18
2023-03-15T12:14:38.525Z,48.76
2023-03-15T12:19:40.585Z,47.11
2023-03-15T12:24:46.775Z,45.30
2023-03-15T12:29:58.448Z,45.55
2023-03-15T12:35:17.659Z,46.02
2023-03-15T12:40:20.227Z,45.71
2023-03-15T12:45:36.983Z,46.12
2023-03-15T12:50:44.932Z,46.40
2023-03-15T12:55:47.531Z,45.71
2023-03-15T13:00:53.039Z,45.57
2023-03-15T13:06:22.198Z,44.98
2023-03-15T13:11:35.862Z,44.92
2023-03-15T13:16:46.267Z,45.22
2023-03-15T13:22:12.391Z,45.04
2023-03-15T13:27:47.567Z,45.36
2023-03-15T13:32:49.065Z,44.61
2023-03-15T13:37:50.683Z,45.91
2023-03-15T13:42:52.173Z,45.51
2023-03-15T13:47:53.603Z,45.99
2023-03-15T13:52:56.425Z,46.14
2023-03-15T13:58:00.117Z,47.37
2023-03-15T14:03:07.290Z,47.96
2023-03-15T14:08:22.027Z,48.56
2023-03-15T14:13:29.534Z,48.49
2023-03-15T14:18:34.918Z,50.08
2023-03-15T14:23:41.491Z,50.28
2023-03-15T14:28:48.317Z,50.43
2023-03-15T14:33:56.891Z,50.24
2023-03-15T14:38:59.708Z,50.56
2023-03-15T14:44:02.993Z,50.18
2023-03-15T14:49:04.542Z,49.93
2023-03-15T14:54:06.587Z,49.80
2023-03-15T14:59:13.905Z,50.42
2023-03-15T15:04:16.972Z,50.38
2023-03-15T15:09:22.755Z,50.18
2023-03-15T15:14:24.253Z,50.26
2023-03-15T15:19:26.052Z,51.87
2023-03-15T15:24:27.607Z,53.75
2023-03-15T15:29:29.552Z,57.01
2023-03-15T15:34:34.073Z,57.28
2023-03-15T15:39:35.521Z,57.65
2023-03-15T15:44:36.926Z,58.02
2023-03-15T15:49:40.384Z,58.82
2023-03-15T15:54:43.244Z,58.91
2023-03-15T15:59:44.784Z,59.73
2023-03-15T16:04:46.242Z,61.30
2023-03-15T16:09:49.741Z,60.62
2023-03-15T16:14:51.575Z,60.64
2023-03-15T16:19:54.238Z,60.32
2023-03-15T16:24:57.974Z,60.64
2023-03-15T16:29:59.459Z,59.68
2023-03-15T16:35:01.420Z,59.87
2023-03-15T16:40:09.886Z,59.44
2023-03-15T16:45:13.479Z,59.63
2023-03-15T16:50:15.582Z,59.91
2023-03-15T16:55:22.181Z,61.44
2023-03-15T17:00:24.608Z,61.47
2023-03-15T17:05:26.687Z,63.81
2023-03-15T17:10:31.034Z,63.85
2023-03-15T17:15:32.527Z,64.13
2023-03-15T17:20:34.160Z,64.25
2023-03-15T17:25:35.649Z,65.05
2023-03-15T17:30:37.659Z,64.61
2023-03-15T17:35:50.641Z,64.58
2023-03-15T17:40:53.464Z,64.21
2023-03-15T17:45:54.948Z,64.61
2023-03-15T17:50:56.404Z,64.35
2023-03-15T17:55:57.842Z,64.55
2023-03-15T18:00:59.544Z,65.25
2023-03-15T18:06:05.150Z,65.89
2023-03-15T18:11:42.640Z,66.99
2023-03-15T18:16:45.289Z,66.52
2023-03-15T18:21:46.785Z,66.93
2023-03-15T18:26:48.209Z,66.35
2023-03-15T18:31:49.704Z,67.70
2023-03-15T18:36:51.524Z,67.29
2023-03-15T18:41:52.961Z,67.05
2023-03-15T18:46:54.445Z,67.19
2023-03-15T18:51:56.609Z,67.19
2023-03-15T18:56:58.067Z,66.96
2023-03-15T19:01:59.750Z,67.50
2023-03-15T19:07:01.223Z,68.04
2023-03-15T19:12:03.132Z,67.64
2023-03-15T19:17:04.733Z,67.63
2023-03-15T19:22:06.330Z,68.77
2023-03-15T19:27:07.793Z,68.13
2023-03-15T19:32:09.289Z,69.14
2023-03-15T19:37:10.722Z,69.01
2023-03-15T19:42:12.161Z,68.96
2023-03-15T19:47:13.576Z,69.60
2023-03-15T19:52:16.026Z,68.98
2023-03-15T19:57:17.629Z,69.21
2023-03-15T20:02:19.219Z,68.89
2023-03-15T20:07:20.647Z,68.80
2023-03-15T20:12:22.134Z,68.78
2023-03-15T20:17:23.681Z,68.59
2023-03-15T20:22:25.112Z,68.96
2023-03-15T20:27:26.691Z,69.09
2023-03-15T20:32:28.555Z,68.70
2023-03-15T20:37:30.935Z,69.20
2023-03-15T20:42:32.374Z,68.85
2023-03-15T20:47:34.319Z,68.52
2023-03-15T20:52:35.768Z,69.17
2023-03-15T20:57:37.387Z,69.27
2023-03-15T21:02:40.343Z,69.63
2023-03-15T21:07:42.590Z,69.21
2023-03-15T21:12:44.344Z,68.95
2023-03-15T21:17:49.083Z,69.47
2023-03-15T21:22:51.400Z,69.26
2023-03-15T21:27:52.820Z,70.27
2023-03-15T21:32:54.293Z,70.33
2023-03-15T21:37:55.781Z,70.61
2023-03-15T21:42:57.191Z,70.77
2023-03-15T21:47:58.621Z,70.70
2023-03-15T21:53:00.095Z,71.55
2023-03-15T21:58:02.199Z,70.99
2023-03-15T22:03:04.780Z,71.64
2023-03-15T22:08:06.496Z,72.01
2023-03-15T22:13:07.989Z,72.27
2023-03-15T22:18:09.478Z,71.90
2023-03-15T22:23:11.210Z,72.08
2023-03-15T22:28:12.951Z,71.48
2023-03-15T22:33:15.544Z,71.27
2023-03-15T22:38:16.982Z,72.34
2023-03-15T22:43:18.447Z,72.09
2023-03-15T22:48:19.890Z,71.46
2023-03-15T22:53:21.321Z,71.80
2023-03-15T22:58:23.233Z,71.77
2023-03-15T23:03:26.254Z,71.80
2023-03-15T23:08:27.850Z,71.68
2023-03-15T23:13:29.384Z,72.23
2023-03-15T23:18:34.350Z,72.59
2023-03-15T23:23:36.270Z,72.44
2023-03-15T23:28:37.686Z,72.57
2023-03-15T23:33:39.095Z,72.12
2023-03-15T23:38:40.883Z,72.70
2023-03-15T23:43:42.341Z,72.74
2023-03-15T23:48:43.778Z,73.40
2023-03-15T23:53:45.301Z,73.52
2023-03-15T23:58:46.747Z,73.64
